sensor_id;sensor_type;location;lat;lon;timestamp;temperature;humidity
14182;DHT22;7171;50.936;6.764;2023-07-28T00:00:44;18.10;99.90
14182;DHT22;7171;50.936;6.764;2023-07-28T00:03:10;18.10;99.90
14182;DHT22;7171;50.936;6.764;2023-07-28T00:05:37;18.10;99.90
14182;DHT22;7171;50.936;6.764;2023-07-28T00:08:04;18.10;99.90
14182;DHT22;7171;50.936;6.764;2023-07-28T00:10:30;18.10;99.90
14182;DHT22;7171;50.936;6.764;2023-07-28T00:12:57;18.10;99.90
14182;DHT22;7171;50.936;6.764;2023-07-28T00:15:24;18.10;99.90
14182;DHT22;7171;50.936;6.764;2023-07-28T00:17:52;18.10;99.90
14182;DHT22;7171;50.936;6.764;2023-07-28T00:20:19;18.20;99.90
14182;DHT22;7171;50.936;6.764;2023-07-28T00:22:45;18.10;99.90
14182;DHT22;7171;50.936;6.764;2023-07-28T00:25:12;18.20;99.90
14182;DHT22;7171;50.936;6.764;2023-07-28T00:27:39;19.00;99.90
14182;DHT22;7171;50.936;6.764;2023-07-28T00:30:06;20.20;99.90
14182;DHT22;7171;50.936;6.764;2023-07-28T00:32:33;18.20;99.90
14182;DHT22;7171;50.936;6.764;2023-07-28T00:35:01;18.30;99.90
14182;DHT22;7171;50.936;6.764;2023-07-28T00:37:28;18.30;99.90
14182;DHT22;7171;50.936;6.764;2023-07-28T00:42:22;18.30;99.90
14182;DHT22;7171;50.936;6.764;2023-07-28T00:44:49;18.30;99.90
14182;DHT22;7171;50.936;6.764;2023-07-28T00:47:15;18.30;99.90
14182;DHT22;7171;50.936;6.764;2023-07-28T00:49:42;18.30;99.90
14182;DHT22;7171;50.936;6.764;2023-07-28T00:52:10;18.30;99.90
14182;DHT22;7171;50.936;6.764;2023-07-28T00:54:37;18.30;99.90
14182;DHT22;7171;50.936;6.764;2023-07-28T00:57:04;19.50;99.90
14182;DHT22;7171;50.936;6.764;2023-07-28T00:59:31;18.40;99.90
14182;DHT22;7171;50.936;6.764;2023-07-28T01:01:58;19.60;99.90
14182;DHT22;7171;50.936;6.764;2023-07-28T01:04:25;18.40;99.90
14182;DHT22;7171;50.936;6.764;2023-07-28T01:06:56;18.40;99.90
14182;DHT22;7171;50.936;6.764;2023-07-28T01:09:32;18.40;99.90
14182;DHT22;7171;50.936;6.764;2023-07-28T01:12:01;18.40;99.90
14182;DHT22;7171;50.936;6.764;2023-07-28T01:14:33;18.30;99.90
14182;DHT22;7171;50.936;6.764;2023-07-28T01:17:00;18.40;99.90
14182;DHT22;7171;50.936;6.764;2023-07-28T01:19:27;18.40;99.90
14182;DHT22;7171;50.936;6.764;2023-07-28T01:22:09;18.40;99.90
14182;DHT22;7171;50.936;6.764;2023-07-28T01:24:49;21.00;99.90
14182;DHT22;7171;50.936;6.764;2023-07-28T01:27:19;18.40;99.90
14182;DHT22;7171;50.936;6.764;2023-07-28T01:29:46;20.20;99.90
14182;DHT22;7171;50.936;6.764;2023-07-28T01:32:14;18.40;99.90
14182;DHT22;7171;50.936;6.764;2023-07-28T01:37:08;18.40;99.90
14182;DHT22;7171;50.936;6.764;2023-07-28T01:39:34;18.40;99.90
14182;DHT22;7171;50.936;6.764;2023-07-28T01:42:01;19.70;99.90
14182;DHT22;7171;50.936;6.764;2023-07-28T01:44:29;18.50;99.90
14182;DHT22;7171;50.936;6.764;2023-07-28T01:46:56;18.50;99.90
14182;DHT22;7171;50.936;6.764;2023-07-28T01:49:22;21.80;99.90
14182;DHT22;7171;50.936;6.764;2023-07-28T01:51:50;18.50;99.90
14182;DHT22;7171;50.936;6.764;2023-07-28T01:54:16;18.50;99.90
14182;DHT22;7171;50.936;6.764;2023-07-28T01:56:43;18.50;99.90
14182;DHT22;7171;50.936;6.764;2023-07-28T01:59:10;18.50;99.90
14182;DHT22;7171;50.936;6.764;2023-07-28T02:01:38;18.50;99.90
14182;DHT22;7171;50.936;6.764;2023-07-28T02:04:04;18.50;99.90
14182;DHT22;7171;50.936;6.764;2023-07-28T02:06:31;18.50;99.90
14182;DHT22;7171;50.936;6.764;2023-07-28T02:08:58;18.40;99.90
14182;DHT22;7171;50.936;6.764;2023-07-28T02:11:25;18.40;99.90
14182;DHT22;7171;50.936;6.764;2023-07-28T02:13:51;20.40;99.90
14182;DHT22;7171;50.936;6.764;2023-07-28T02:16:18;18.40;99.90
14182;DHT22;7171;50.936;6.764;2023-07-28T02:18:46;18.50;99.90
14182;DHT22;7171;50.936;6.764;2023-07-28T02:21:13;18.50;99.90
14182;DHT22;7171;50.936;6.764;2023-07-28T02:23:40;18.50;99.90
14182;DHT22;7171;50.936;6.764;2023-07-28T02:26:06;18.50;99.90
14182;DHT22;7171;50.936;6.764;2023-07-28T02:28:33;18.50;99.90
14182;DHT22;7171;50.936;6.764;2023-07-28T02:31:00;18.50;99.90
14182;DHT22;7171;50.936;6.764;2023-07-28T02:33:27;18.50;99.90
14182;DHT22;7171;50.936;6.764;2023-07-28T02:35:56;18.50;99.90
14182;DHT22;7171;50.936;6.764;2023-07-28T02:38:23;18.50;99.90
14182;DHT22;7171;50.936;6.764;2023-07-28T02:40:49;18.50;99.90
14182;DHT22;7171;50.936;6.764;2023-07-28T02:43:16;18.50;99.90
14182;DHT22;7171;50.936;6.764;2023-07-28T02:45:43;18.50;99.90
14182;DHT22;7171;50.936;6.764;2023-07-28T02:48:09;18.60;99.90
14182;DHT22;7171;50.936;6.764;2023-07-28T02:50:36;18.60;99.90
14182;DHT22;7171;50.936;6.764;2023-07-28T02:53:04;18.60;99.90
14182;DHT22;7171;50.936;6.764;2023-07-28T02:55:31;18.60;99.90
14182;DHT22;7171;50.936;6.764;2023-07-28T02:57:57;18.60;99.90
14182;DHT22;7171;50.936;6.764;2023-07-28T03:00:24;18.60;99.90
14182;DHT22;7171;50.936;6.764;2023-07-28T03:05:18;18.60;99.90
14182;DHT22;7171;50.936;6.764;2023-07-28T03:07:47;18.60;99.90
14182;DHT22;7171;50.936;6.764;2023-07-28T03:10:16;18.60;99.90
14182;DHT22;7171;50.936;6.764;2023-07-28T03:12:42;18.60;99.90
14182;DHT22;7171;50.936;6.764;2023-07-28T03:15:09;18.60;99.90
14182;DHT22;7171;50.936;6.764;2023-07-28T03:17:36;18.60;99.90
14182;DHT22;7171;50.936;6.764;2023-07-28T03:20:03;19.90;99.90
14182;DHT22;7171;50.936;6.764;2023-07-28T03:22:30;18.60;99.90
14182;DHT22;7171;50.936;6.764;2023-07-28T03:24:57;18.60;99.90
14182;DHT22;7171;50.936;6.764;2023-07-28T03:27:25;18.60;99.90
14182;DHT22;7171;50.936;6.764;2023-07-28T03:29:52;18.60;99.90
14182;DHT22;7171;50.936;6.764;2023-07-28T03:32:18;18.60;99.90
14182;DHT22;7171;50.936;6.764;2023-07-28T03:34:45;18.60;99.90
14182;DHT22;7171;50.936;6.764;2023-07-28T03:37:12;18.60;99.90
14182;DHT22;7171;50.936;6.764;2023-07-28T03:39:39;18.60;99.90
14182;DHT22;7171;50.936;6.764;2023-07-28T03:42:06;21.70;99.90
14182;DHT22;7171;50.936;6.764;2023-07-28T03:44:35;18.60;99.90
14182;DHT22;7171;50.936;6.764;2023-07-28T03:47:03;21.80;99.90
14182;DHT22;7171;50.936;6.764;2023-07-28T03:49:30;18.60;99.90
14182;DHT22;7171;50.936;6.764;2023-07-28T03:51:56;18.60;99.90
14182;DHT22;7171;50.936;6.764;2023-07-28T03:54:23;18.70;99.90
14182;DHT22;7171;50.936;6.764;2023-07-28T03:56:50;18.60;99.90
14182;DHT22;7171;50.936;6.764;2023-07-28T03:59:17;18.60;99.90
14182;DHT22;7171;50.936;6.764;2023-07-28T04:01:45;18.60;99.90
14182;DHT22;7171;50.936;6.764;2023-07-28T04:04:13;18.60;99.90
14182;DHT22;7171;50.936;6.764;2023-07-28T04:06:40;18.60;99.90
14182;DHT22;7171;50.936;6.764;2023-07-28T04:09:08;18.60;99.90
14182;DHT22;7171;50.936;6.764;2023-07-28T04:11:35;18.60;99.90
14182;DHT22;7171;50.936;6.764;2023-07-28T04:14:02;18.50;99.90
14182;DHT22;7171;50.936;6.764;2023-07-28T04:16:28;18.50;99.90
14182;DHT22;7171;50.936;6.764;2023-07-28T04:18:57;18.50;99.90
14182;DHT22;7171;50.936;6.764;2023-07-28T04:21:23;18.50;99.90
14182;DHT22;7171;50.936;6.764;2023-07-28T04:23:50;19.40;99.90
14182;DHT22;7171;50.936;6.764;2023-07-28T04:26:17;18.50;99.90
14182;DHT22;7171;50.936;6.764;2023-07-28T04:28:44;18.50;99.90
14182;DHT22;7171;50.936;6.764;2023-07-28T04:31:11;18.50;99.90
14182;DHT22;7171;50.936;6.764;2023-07-28T04:33:41;18.50;99.90
14182;DHT22;7171;50.936;6.764;2023-07-28T04:36:09;18.60;99.90
14182;DHT22;7171;50.936;6.764;2023-07-28T04:38:36;18.60;99.90
14182;DHT22;7171;50.936;6.764;2023-07-28T04:41:02;18.50;99.90
14182;DHT22;7171;50.936;6.764;2023-07-28T04:43:29;18.60;99.90
14182;DHT22;7171;50.936;6.764;2023-07-28T04:45:56;18.60;99.90
14182;DHT22;7171;50.936;6.764;2023-07-28T04:48:23;18.50;99.90
14182;DHT22;7171;50.936;6.764;2023-07-28T04:50:49;18.60;99.90
14182;DHT22;7171;50.936;6.764;2023-07-28T04:53:17;18.60;99.90
14182;DHT22;7171;50.936;6.764;2023-07-28T04:55:44;18.60;99.90
14182;DHT22;7171;50.936;6.764;2023-07-28T04:58:11;18.60;99.90
14182;DHT22;7171;50.936;6.764;2023-07-28T05:00:38;19.80;99.90
14182;DHT22;7171;50.936;6.764;2023-07-28T05:03:04;18.60;99.90
14182;DHT22;7171;50.936;6.764;2023-07-28T05:05:31;18.60;99.90
14182;DHT22;7171;50.936;6.764;2023-07-28T05:07:58;18.60;99.90
14182;DHT22;7171;50.936;6.764;2023-07-28T05:10:26;18.60;99.90
14182;DHT22;7171;50.936;6.764;2023-07-28T05:12:53;18.60;99.90
14182;DHT22;7171;50.936;6.764;2023-07-28T05:15:19;19.90;99.90
14182;DHT22;7171;50.936;6.764;2023-07-28T05:17:46;18.60;99.90
14182;DHT22;7171;50.936;6.764;2023-07-28T05:20:13;18.60;99.90
14182;DHT22;7171;50.936;6.764;2023-07-28T05:22:39;18.60;99.90
14182;DHT22;7171;50.936;6.764;2023-07-28T05:25:07;18.60;99.90
14182;DHT22;7171;50.936;6.764;2023-07-28T05:27:35;18.60;99.90
14182;DHT22;7171;50.936;6.764;2023-07-28T05:30:02;18.60;99.90
14182;DHT22;7171;50.936;6.764;2023-07-28T05:32:29;18.70;99.90
14182;DHT22;7171;50.936;6.764;2023-07-28T05:34:56;18.70;99.90
14182;DHT22;7171;50.936;6.764;2023-07-28T05:37:22;18.70;99.90
14182;DHT22;7171;50.936;6.764;2023-07-28T05:39:49;18.70;99.90
14182;DHT22;7171;50.936;6.764;2023-07-28T05:42:16;18.70;99.90
14182;DHT22;7171;50.936;6.764;2023-07-28T05:44:44;18.70;99.90
14182;DHT22;7171;50.936;6.764;2023-07-28T05:47:11;18.70;99.90
14182;DHT22;7171;50.936;6.764;2023-07-28T05:49:38;18.80;99.90
14182;DHT22;7171;50.936;6.764;2023-07-28T05:52:05;18.80;99.90
14182;DHT22;7171;50.936;6.764;2023-07-28T05:54:31;18.80;99.90
14182;DHT22;7171;50.936;6.764;2023-07-28T05:56:57;18.80;99.90
14182;DHT22;7171;50.936;6.764;2023-07-28T05:59:24;18.80;99.90
14182;DHT22;7171;50.936;6.764;2023-07-28T06:01:52;18.80;99.90
14182;DHT22;7171;50.936;6.764;2023-07-28T06:04:19;18.80;99.90
14182;DHT22;7171;50.936;6.764;2023-07-28T06:06:46;18.80;99.90
14182;DHT22;7171;50.936;6.764;2023-07-28T06:09:13;18.80;99.90
14182;DHT22;7171;50.936;6.764;2023-07-28T06:11:39;18.80;99.90
14182;DHT22;7171;50.936;6.764;2023-07-28T06:14:06;18.80;99.90
14182;DHT22;7171;50.936;6.764;2023-07-28T06:16:33;18.90;99.90
14182;DHT22;7171;50.936;6.764;2023-07-28T06:19:01;18.90;99.90
14182;DHT22;7171;50.936;6.764;2023-07-28T06:21:29;18.90;99.90
14182;DHT22;7171;50.936;6.764;2023-07-28T06:23:56;18.90;99.90
14182;DHT22;7171;50.936;6.764;2023-07-28T06:26:23;18.90;99.90
14182;DHT22;7171;50.936;6.764;2023-07-28T06:28:49;18.90;99.90
14182;DHT22;7171;50.936;6.764;2023-07-28T06:31:16;18.90;99.90
14182;DHT22;7171;50.936;6.764;2023-07-28T06:33:43;18.90;99.90
14182;DHT22;7171;50.936;6.764;2023-07-28T06:36:11;20.70;99.90
14182;DHT22;7171;50.936;6.764;2023-07-28T06:38:37;18.90;99.90
14182;DHT22;7171;50.936;6.764;2023-07-28T06:41:04;19.00;99.90
14182;DHT22;7171;50.936;6.764;2023-07-28T06:43:31;19.00;99.90
14182;DHT22;7171;50.936;6.764;2023-07-28T06:45:58;19.00;99.90
14182;DHT22;7171;50.936;6.764;2023-07-28T06:48:25;19.00;99.90
14182;DHT22;7171;50.936;6.764;2023-07-28T06:50:51;19.00;99.90
14182;DHT22;7171;50.936;6.764;2023-07-28T06:53:20;19.00;99.90
14182;DHT22;7171;50.936;6.764;2023-07-28T06:55:47;19.00;99.90
14182;DHT22;7171;50.936;6.764;2023-07-28T06:58:13;19.00;99.90
14182;DHT22;7171;50.936;6.764;2023-07-28T07:00:40;19.00;99.90
14182;DHT22;7171;50.936;6.764;2023-07-28T07:03:07;19.10;99.90
14182;DHT22;7171;50.936;6.764;2023-07-28T07:05:34;19.10;99.90
14182;DHT22;7171;50.936;6.764;2023-07-28T07:08:00;19.10;99.90
14182;DHT22;7171;50.936;6.764;2023-07-28T07:10:29;19.10;99.90
14182;DHT22;7171;50.936;6.764;2023-07-28T07:12:56;19.10;99.90
14182;DHT22;7171;50.936;6.764;2023-07-28T07:15:23;19.10;99.90
14182;DHT22;7171;50.936;6.764;2023-07-28T07:17:49;19.20;99.90
14182;DHT22;7171;50.936;6.764;2023-07-28T07:20:16;19.20;99.90
14182;DHT22;7171;50.936;6.764;2023-07-28T07:22:43;21.00;99.90
14182;DHT22;7171;50.936;6.764;2023-07-28T07:25:09;19.20;99.90
14182;DHT22;7171;50.936;6.764;2023-07-28T07:27:37;19.30;99.90
14182;DHT22;7171;50.936;6.764;2023-07-28T07:30:05;19.30;99.90
14182;DHT22;7171;50.936;6.764;2023-07-28T07:32:33;19.30;99.90
14182;DHT22;7171;50.936;6.764;2023-07-28T07:35:00;19.30;99.90
14182;DHT22;7171;50.936;6.764;2023-07-28T07:37:27;19.30;99.90
14182;DHT22;7171;50.936;6.764;2023-07-28T07:39:53;19.30;99.90
14182;DHT22;7171;50.936;6.764;2023-07-28T07:42:20;19.30;99.90
14182;DHT22;7171;50.936;6.764;2023-07-28T07:44:48;19.30;99.90
14182;DHT22;7171;50.936;6.764;2023-07-28T07:47:15;19.30;99.90
14182;DHT22;7171;50.936;6.764;2023-07-28T07:49:43;19.40;99.90
14182;DHT22;7171;50.936;6.764;2023-07-28T07:52:10;19.40;99.90
14182;DHT22;7171;50.936;6.764;2023-07-28T07:54:37;19.40;99.90
14182;DHT22;7171;50.936;6.764;2023-07-28T07:57:04;19.50;99.90
14182;DHT22;7171;50.936;6.764;2023-07-28T07:59:31;19.50;99.90
14182;DHT22;7171;50.936;6.764;2023-07-28T08:01:59;19.60;99.90
14182;DHT22;7171;50.936;6.764;2023-07-28T08:04:28;19.70;99.90
14182;DHT22;7171;50.936;6.764;2023-07-28T08:06:55;19.70;99.90
14182;DHT22;7171;50.936;6.764;2023-07-28T08:09:22;19.80;99.90
14182;DHT22;7171;50.936;6.764;2023-07-28T08:11:49;19.80;99.90
14182;DHT22;7171;50.936;6.764;2023-07-28T08:14:15;19.90;99.90
14182;DHT22;7171;50.936;6.764;2023-07-28T08:16:42;21.40;99.90
14182;DHT22;7171;50.936;6.764;2023-07-28T08:19:10;20.00;99.90
14182;DHT22;7171;50.936;6.764;2023-07-28T08:21:37;20.10;99.90
14182;DHT22;7171;50.936;6.764;2023-07-28T08:24:04;20.70;99.90
14182;DHT22;7171;50.936;6.764;2023-07-28T08:26:31;20.10;99.90
14182;DHT22;7171;50.936;6.764;2023-07-28T08:28:57;20.30;99.90
14182;DHT22;7171;50.936;6.764;2023-07-28T08:31:24;20.20;99.90
14182;DHT22;7171;50.936;6.764;2023-07-28T08:33:51;20.20;99.90
14182;DHT22;7171;50.936;6.764;2023-07-28T08:36:19;20.30;99.90
14182;DHT22;7171;50.936;6.764;2023-07-28T08:38:46;20.30;99.90
14182;DHT22;7171;50.936;6.764;2023-07-28T08:41:12;20.30;99.90
14182;DHT22;7171;50.936;6.764;2023-07-28T08:43:39;20.30;99.90
14182;DHT22;7171;50.936;6.764;2023-07-28T08:46:06;20.30;99.90
14182;DHT22;7171;50.936;6.764;2023-07-28T08:48:33;20.40;99.90
14182;DHT22;7171;50.936;6.764;2023-07-28T08:51:00;20.40;99.90
14182;DHT22;7171;50.936;6.764;2023-07-28T08:53:28;20.40;99.90
14182;DHT22;7171;50.936;6.764;2023-07-28T08:55:55;20.50;99.90
14182;DHT22;7171;50.936;6.764;2023-07-28T08:58:22;21.50;99.90
14182;DHT22;7171;50.936;6.764;2023-07-28T09:00:50;22.50;99.90
14182;DHT22;7171;50.936;6.764;2023-07-28T09:03:18;20.80;99.90
14182;DHT22;7171;50.936;6.764;2023-07-28T09:05:45;20.90;99.90
14182;DHT22;7171;50.936;6.764;2023-07-28T09:08:12;21.00;99.90
14182;DHT22;7171;50.936;6.764;2023-07-28T09:10:45;21.00;99.90
14182;DHT22;7171;50.936;6.764;2023-07-28T09:13:13;21.10;99.90
14182;DHT22;7171;50.936;6.764;2023-07-28T09:15:40;21.10;99.90
14182;DHT22;7171;50.936;6.764;2023-07-28T09:18:08;21.10;99.90
14182;DHT22;7171;50.936;6.764;2023-07-28T09:20:36;21.10;99.90
14182;DHT22;7171;50.936;6.764;2023-07-28T09:23:04;21.10;99.90
14182;DHT22;7171;50.936;6.764;2023-07-28T09:25:31;21.10;99.90
14182;DHT22;7171;50.936;6.764;2023-07-28T09:27:59;21.20;99.90
14182;DHT22;7171;50.936;6.764;2023-07-28T09:30:27;21.30;99.90
14182;DHT22;7171;50.936;6.764;2023-07-28T09:32:55;21.30;99.90
14182;DHT22;7171;50.936;6.764;2023-07-28T09:35:22;21.30;99.90
14182;DHT22;7171;50.936;6.764;2023-07-28T09:37:50;21.40;99.90
14182;DHT22;7171;50.936;6.764;2023-07-28T09:40:21;21.30;99.90
14182;DHT22;7171;50.936;6.764;2023-07-28T09:42:49;21.40;99.90
14182;DHT22;7171;50.936;6.764;2023-07-28T09:45:18;21.80;99.90
14182;DHT22;7171;50.936;6.764;2023-07-28T09:47:46;21.50;99.90
14182;DHT22;7171;50.936;6.764;2023-07-28T09:50:15;21.50;99.90
14182;DHT22;7171;50.936;6.764;2023-07-28T09:52:42;21.60;99.90
14182;DHT22;7171;50.936;6.764;2023-07-28T09:55:10;21.60;99.90
14182;DHT22;7171;50.936;6.764;2023-07-28T09:57:41;21.70;99.90
14182;DHT22;7171;50.936;6.764;2023-07-28T10:00:09;21.70;99.90
14182;DHT22;7171;50.936;6.764;2023-07-28T10:02:38;21.70;99.90
14182;DHT22;7171;50.936;6.764;2023-07-28T10:05:07;21.70;99.90
14182;DHT22;7171;50.936;6.764;2023-07-28T10:07:37;21.70;99.90
14182;DHT22;7171;50.936;6.764;2023-07-28T10:10:06;21.70;99.90
14182;DHT22;7171;50.936;6.764;2023-07-28T10:12:40;21.70;99.90
14182;DHT22;7171;50.936;6.764;2023-07-28T10:15:12;21.70;99.90
14182;DHT22;7171;50.936;6.764;2023-07-28T10:17:43;21.70;99.90
14182;DHT22;7171;50.936;6.764;2023-07-28T10:20:29;21.70;99.90
14182;DHT22;7171;50.936;6.764;2023-07-28T10:23:07;21.70;99.90
14182;DHT22;7171;50.936;6.764;2023-07-28T10:25:35;21.70;99.90
14182;DHT22;7171;50.936;6.764;2023-07-28T10:28:02;21.70;99.90
14182;DHT22;7171;50.936;6.764;2023-07-28T10:30:35;21.70;99.90
14182;DHT22;7171;50.936;6.764;2023-07-28T10:33:04;21.70;99.90
14182;DHT22;7171;50.936;6.764;2023-07-28T10:35:32;21.70;99.90
14182;DHT22;7171;50.936;6.764;2023-07-28T10:41:10;21.80;99.90
14182;DHT22;7171;50.936;6.764;2023-07-28T10:43:38;21.80;99.90
14182;DHT22;7171;50.936;6.764;2023-07-28T10:46:05;21.80;99.90
14182;DHT22;7171;50.936;6.764;2023-07-28T10:48:36;24.40;99.90
14182;DHT22;7171;50.936;6.764;2023-07-28T10:51:03;23.90;99.90
14182;DHT22;7171;50.936;6.764;2023-07-28T10:53:32;21.80;99.90
14182;DHT22;7171;50.936;6.764;2023-07-28T10:56:01;21.80;99.90
14182;DHT22;7171;50.936;6.764;2023-07-28T10:58:28;21.80;99.90
14182;DHT22;7171;50.936;6.764;2023-07-28T11:00:55;21.90;99.90
14182;DHT22;7171;50.936;6.764;2023-07-28T11:03:22;21.90;99.90
14182;DHT22;7171;50.936;6.764;2023-07-28T11:05:51;22.00;99.90
14182;DHT22;7171;50.936;6.764;2023-07-28T11:08:18;22.00;99.90
14182;DHT22;7171;50.936;6.764;2023-07-28T11:10:44;22.10;99.90
14182;DHT22;7171;50.936;6.764;2023-07-28T11:13:11;22.20;99.90
14182;DHT22;7171;50.936;6.764;2023-07-28T11:15:39;22.90;99.90
14182;DHT22;7171;50.936;6.764;2023-07-28T11:18:06;22.30;99.90
14182;DHT22;7171;50.936;6.764;2023-07-28T11:20:35;23.00;99.90
14182;DHT22;7171;50.936;6.764;2023-07-28T11:23:04;22.40;99.90
14182;DHT22;7171;50.936;6.764;2023-07-28T11:25:33;22.30;99.90
14182;DHT22;7171;50.936;6.764;2023-07-28T11:28:01;22.40;99.90
14182;DHT22;7171;50.936;6.764;2023-07-28T11:30:28;21.80;99.90
14182;DHT22;7171;50.936;6.764;2023-07-28T11:32:55;22.60;99.90
14182;DHT22;7171;50.936;6.764;2023-07-28T11:37:50;22.70;99.90
14182;DHT22;7171;50.936;6.764;2023-07-28T11:42:52;22.80;99.90
14182;DHT22;7171;50.936;6.764;2023-07-28T11:45:20;22.90;99.90
14182;DHT22;7171;50.936;6.764;2023-07-28T11:47:58;23.00;99.90
14182;DHT22;7171;50.936;6.764;2023-07-28T11:50:26;23.10;99.90
14182;DHT22;7171;50.936;6.764;2023-07-28T11:52:53;23.20;99.90
14182;DHT22;7171;50.936;6.764;2023-07-28T11:55:22;23.20;99.90
14182;DHT22;7171;50.936;6.764;2023-07-28T11:57:49;23.30;99.90
14182;DHT22;7171;50.936;6.764;2023-07-28T12:00:17;23.40;99.90
14182;DHT22;7171;50.936;6.764;2023-07-28T12:02:44;23.40;99.90
14182;DHT22;7171;50.936;6.764;2023-07-28T12:05:13;23.50;99.90
14182;DHT22;7171;50.936;6.764;2023-07-28T12:07:39;23.60;99.90
14182;DHT22;7171;50.936;6.764;2023-07-28T12:10:07;23.50;99.90
14182;DHT22;7171;50.936;6.764;2023-07-28T12:12:41;23.60;99.90
14182;DHT22;7171;50.936;6.764;2023-07-28T12:15:24;23.60;99.90
14182;DHT22;7171;50.936;6.764;2023-07-28T12:18:04;23.60;99.90
14182;DHT22;7171;50.936;6.764;2023-07-28T12:20:36;23.50;99.90
14182;DHT22;7171;50.936;6.764;2023-07-28T12:23:03;24.30;99.90
14182;DHT22;7171;50.936;6.764;2023-07-28T12:25:30;23.40;99.90
14182;DHT22;7171;50.936;6.764;2023-07-28T12:27:58;23.40;99.90
14182;DHT22;7171;50.936;6.764;2023-07-28T12:30:25;23.40;99.90
14182;DHT22;7171;50.936;6.764;2023-07-28T12:32:52;23.40;99.90
14182;DHT22;7171;50.936;6.764;2023-07-28T12:35:19;23.30;99.90
14182;DHT22;7171;50.936;6.764;2023-07-28T12:37:46;23.40;99.90
14182;DHT22;7171;50.936;6.764;2023-07-28T12:40:13;23.30;99.90
14182;DHT22;7171;50.936;6.764;2023-07-28T12:42:39;23.30;99.90
14182;DHT22;7171;50.936;6.764;2023-07-28T12:45:09;23.30;99.90
14182;DHT22;7171;50.936;6.764;2023-07-28T12:47:36;23.20;99.90
14182;DHT22;7171;50.936;6.764;2023-07-28T12:50:03;26.40;99.90
14182;DHT22;7171;50.936;6.764;2023-07-28T12:52:31;23.10;99.90
14182;DHT22;7171;50.936;6.764;2023-07-28T12:54:58;23.40;99.90
14182;DHT22;7171;50.936;6.764;2023-07-28T12:57:25;23.10;99.90
14182;DHT22;7171;50.936;6.764;2023-07-28T12:59:52;23.10;99.90
14182;DHT22;7171;50.936;6.764;2023-07-28T13:02:20;24.40;99.90
14182;DHT22;7171;50.936;6.764;2023-07-28T13:04:46;23.10;99.90
14182;DHT22;7171;50.936;6.764;2023-07-28T13:07:13;23.10;99.90
14182;DHT22;7171;50.936;6.764;2023-07-28T13:09:40;26.40;99.90
14182;DHT22;7171;50.936;6.764;2023-07-28T13:12:08;23.10;99.90
14182;DHT22;7171;50.936;6.764;2023-07-28T13:14:35;23.10;99.90
14182;DHT22;7171;50.936;6.764;2023-07-28T13:17:01;23.20;99.90
14182;DHT22;7171;50.936;6.764;2023-07-28T13:19:29;23.20;99.90
14182;DHT22;7171;50.936;6.764;2023-07-28T13:21:56;25.00;99.90
14182;DHT22;7171;50.936;6.764;2023-07-28T13:24:23;23.30;99.90
14182;DHT22;7171;50.936;6.764;2023-07-28T13:26:49;23.30;99.90
14182;DHT22;7171;50.936;6.764;2023-07-28T13:29:16;23.40;99.90
14182;DHT22;7171;50.936;6.764;2023-07-28T13:31:43;23.40;99.90
14182;DHT22;7171;50.936;6.764;2023-07-28T13:34:09;26.30;99.90
14182;DHT22;7171;50.936;6.764;2023-07-28T13:36:37;23.40;99.90
14182;DHT22;7171;50.936;6.764;2023-07-28T13:39:04;23.40;99.90
14182;DHT22;7171;50.936;6.764;2023-07-28T13:41:31;23.50;99.90
14182;DHT22;7171;50.936;6.764;2023-07-28T13:43:58;23.50;99.90
14182;DHT22;7171;50.936;6.764;2023-07-28T13:46:24;23.60;99.90
14182;DHT22;7171;50.936;6.764;2023-07-28T13:48:51;23.60;99.90
14182;DHT22;7171;50.936;6.764;2023-07-28T13:51:18;23.80;99.90
14182;DHT22;7171;50.936;6.764;2023-07-28T13:53:46;23.90;99.90
14182;DHT22;7171;50.936;6.764;2023-07-28T13:56:13;24.00;99.90
14182;DHT22;7171;50.936;6.764;2023-07-28T13:58:40;24.10;99.90
14182;DHT22;7171;50.936;6.764;2023-07-28T14:01:06;24.10;99.90
14182;DHT22;7171;50.936;6.764;2023-07-28T14:03:33;24.20;99.90
14182;DHT22;7171;50.936;6.764;2023-07-28T14:06:00;24.20;99.90
14182;DHT22;7171;50.936;6.764;2023-07-28T14:08:26;24.20;99.90
14182;DHT22;7171;50.936;6.764;2023-07-28T14:10:55;24.20;99.90
14182;DHT22;7171;50.936;6.764;2023-07-28T14:13:22;25.80;99.90
14182;DHT22;7171;50.936;6.764;2023-07-28T14:15:50;24.10;99.90
14182;DHT22;7171;50.936;6.764;2023-07-28T14:18:17;24.10;99.90
14182;DHT22;7171;50.936;6.764;2023-07-28T14:20:43;24.10;99.90
14182;DHT22;7171;50.936;6.764;2023-07-28T14:23:24;24.20;99.90
14182;DHT22;7171;50.936;6.764;2023-07-28T14:25:51;24.10;99.90
14182;DHT22;7171;50.936;6.764;2023-07-28T14:28:19;26.40;99.90
14182;DHT22;7171;50.936;6.764;2023-07-28T14:30:47;24.60;99.90
14182;DHT22;7171;50.936;6.764;2023-07-28T14:33:14;24.10;99.90
14182;DHT22;7171;50.936;6.764;2023-07-28T14:35:40;24.20;99.90
14182;DHT22;7171;50.936;6.764;2023-07-28T14:38:08;24.10;99.90
14182;DHT22;7171;50.936;6.764;2023-07-28T14:40:35;24.10;99.90
14182;DHT22;7171;50.936;6.764;2023-07-28T14:43:02;24.10;99.90
14182;DHT22;7171;50.936;6.764;2023-07-28T14:45:30;24.10;99.90
14182;DHT22;7171;50.936;6.764;2023-07-28T14:47:57;24.20;99.90
14182;DHT22;7171;50.936;6.764;2023-07-28T14:50:24;24.20;99.90
14182;DHT22;7171;50.936;6.764;2023-07-28T14:52:50;24.30;99.90
14182;DHT22;7171;50.936;6.764;2023-07-28T14:55:17;24.40;99.90
14182;DHT22;7171;50.936;6.764;2023-07-28T14:57:44;24.40;99.90
14182;DHT22;7171;50.936;6.764;2023-07-28T15:00:12;27.00;99.90
14182;DHT22;7171;50.936;6.764;2023-07-28T15:02:40;24.60;99.90
14182;DHT22;7171;50.936;6.764;2023-07-28T15:05:07;24.60;99.90
14182;DHT22;7171;50.936;6.764;2023-07-28T15:07:34;24.60;99.90
14182;DHT22;7171;50.936;6.764;2023-07-28T15:10:02;26.50;99.90
14182;DHT22;7171;50.936;6.764;2023-07-28T15:12:29;24.60;99.90
14182;DHT22;7171;50.936;6.764;2023-07-28T15:14:56;24.60;99.90
14182;DHT22;7171;50.936;6.764;2023-07-28T15:17:23;24.60;99.90
14182;DHT22;7171;50.936;6.764;2023-07-28T15:19:51;24.60;99.90
14182;DHT22;7171;50.936;6.764;2023-07-28T15:22:17;24.60;99.90
14182;DHT22;7171;50.936;6.764;2023-07-28T15:24:44;24.80;99.90
14182;DHT22;7171;50.936;6.764;2023-07-28T15:27:11;24.70;99.90
14182;DHT22;7171;50.936;6.764;2023-07-28T15:29:38;26.60;99.90
14182;DHT22;7171;50.936;6.764;2023-07-28T15:32:05;24.70;99.90
14182;DHT22;7171;50.936;6.764;2023-07-28T15:34:32;24.60;99.90
14182;DHT22;7171;50.936;6.764;2023-07-28T15:37:01;25.10;99.90
14182;DHT22;7171;50.936;6.764;2023-07-28T15:39:29;24.60;99.90
14182;DHT22;7171;50.936;6.764;2023-07-28T15:41:56;24.50;99.90
14182;DHT22;7171;50.936;6.764;2023-07-28T15:44:22;24.00;99.90
14182;DHT22;7171;50.936;6.764;2023-07-28T15:46:50;24.50;99.90
14182;DHT22;7171;50.936;6.764;2023-07-28T15:49:18;23.60;99.90
14182;DHT22;7171;50.936;6.764;2023-07-28T15:51:45;23.90;99.90
14182;DHT22;7171;50.936;6.764;2023-07-28T15:54:13;24.10;99.90
14182;DHT22;7171;50.936;6.764;2023-07-28T15:56:40;23.80;99.90
14182;DHT22;7171;50.936;6.764;2023-07-28T15:59:06;23.60;99.90
14182;DHT22;7171;50.936;6.764;2023-07-28T16:01:33;23.40;99.90